createdAt,value
2018-07-20T00:00:31.595Z,100139.45
2018-07-20T00:03:00.259Z,100136.45
2018-07-20T00:05:28.787Z,100133.25
2018-07-20T00:07:57.272Z,100127.28
2018-07-20T00:10:25.863Z,100127.30
2018-07-20T00:12:54.403Z,100128.73
2018-07-20T00:15:22.811Z,100126.92
2018-07-20T00:17:51.270Z,100121.01
2018-07-20T00:20:19.747Z,100125.59
2018-07-20T00:22:48.183Z,100119.00
2018-07-20T00:25:16.650Z,100117.50
2018-07-20T00:27:45.130Z,100111.28
2018-07-20T00:30:13.527Z,100111.09
2018-07-20T00:32:42.100Z,100112.09
2018-07-20T00:35:10.503Z,100108.21
2018-07-20T00:37:38.907Z,100116.28
2018-07-20T00:40:07.587Z,100110.69
2018-07-20T00:42:36.033Z,100106.19
2018-07-20T00:45:04.437Z,100109.73
2018-07-20T00:47:33.007Z,100106.11
2018-07-20T00:50:01.413Z,100102.45
2018-07-20T00:52:29.953Z,100103.41
2018-07-20T00:54:58.837Z,100108.30
2018-07-20T00:57:27.315Z,100103.02
2018-07-20T00:59:55.736Z,100101.26
2018-07-20T01:02:24.455Z,100097.17
2018-07-20T01:04:52.903Z,100099.95
2018-07-20T01:07:21.319Z,100100.81
2018-07-20T01:09:49.812Z,100098.72
2018-07-20T01:12:18.366Z,100099.31
2018-07-20T01:14:46.824Z,100102.30
2018-07-20T01:17:15.520Z,100103.55
2018-07-20T01:19:44.044Z,100104.48
2018-07-20T01:22:12.587Z,100105.61
2018-07-20T01:24:41.114Z,100101.39
2018-07-20T01:27:09.619Z,100110.20
2018-07-20T01:29:38.103Z,100106.98
2018-07-20T01:32:06.767Z,100111.14
2018-07-20T01:34:35.231Z,100110.03
2018-07-20T01:37:03.787Z,100103.36
2018-07-20T01:39:32.211Z,100102.81
2018-07-20T01:42:00.780Z,100100.89
2018-07-20T01:44:29.273Z,100101.97
2018-07-20T01:46:57.816Z,100102.19
2018-07-20T01:49:26.452Z,100103.31
2018-07-20T01:51:54.959Z,100104.75
2018-07-20T01:54:23.543Z,100100.34
2018-07-20T01:56:52.023Z,100102.50
2018-07-20T01:59:20.447Z,100095.75
2018-07-20T02:01:48.940Z,100101.50
2018-07-20T02:04:17.399Z,100101.42
2018-07-20T02:06:45.826Z,100100.63
2018-07-20T02:09:14.314Z,100100.31
2018-07-20T02:11:42.811Z,100099.91
2018-07-20T02:14:11.287Z,100099.84
2018-07-20T02:16:39.974Z,100101.08
2018-07-20T02:19:08.483Z,100107.39
2018-07-20T02:21:37.005Z,100102.44
2018-07-20T02:24:05.955Z,100099.12
2018-07-20T02:26:34.475Z,100102.05
2018-07-20T02:29:02.980Z,100095.16
2018-07-20T02:31:31.532Z,100097.53
2018-07-20T02:33:59.981Z,100094.70
2018-07-20T02:36:28.458Z,100098.97
2018-07-20T02:38:57.123Z,100095.80
2018-07-20T02:41:25.628Z,100091.08
2018-07-20T02:43:54.431Z,100092.98
2018-07-20T02:46:23.141Z,100086.12
2018-07-20T02:48:51.602Z,100092.90
2018-07-20T02:51:20.035Z,100091.57
2018-07-20T02:53:48.696Z,100097.16
2018-07-20T02:56:17.216Z,100091.80
2018-07-20T02:58:45.704Z,100093.22
2018-07-20T03:01:14.176Z,100086.19
2018-07-20T03:03:42.718Z,100089.34
2018-07-20T03:06:11.204Z,100085.95
2018-07-20T03:08:39.918Z,100091.86
2018-07-20T03:11:08.412Z,100092.81
2018-07-20T03:13:36.884Z,100082.41
2018-07-20T03:16:05.651Z,100093.28
2018-07-20T03:18:34.103Z,100087.54
2018-07-20T03:21:02.573Z,100085.25
2018-07-20T03:23:31.243Z,100086.91
2018-07-20T03:25:59.652Z,100087.07
2018-07-20T03:28:28.083Z,100086.45
2018-07-20T03:30:56.826Z,100084.77
2018-07-20T03:33:25.349Z,100080.75
2018-07-20T03:35:53.886Z,100081.94
2018-07-20T03:38:22.603Z,100083.45
2018-07-20T03:40:51.162Z,100079.98
2018-07-20T03:43:19.775Z,100075.89
2018-07-20T03:45:48.414Z,100078.09
2018-07-20T03:48:17.030Z,100074.63
2018-07-20T03:50:45.455Z,100076.81
2018-07-20T03:53:14.395Z,100078.20
2018-07-20T03:55:42.830Z,100074.56
2018-07-20T03:58:11.311Z,100074.14
2018-07-20T04:00:39.979Z,100074.85
2018-07-20T04:03:08.380Z,100074.64
2018-07-20T04:05:36.887Z,100080.93
2018-07-20T04:08:05.566Z,100082.83
2018-07-20T04:10:34.175Z,100077.06
2018-07-20T04:13:02.671Z,100078.89
2018-07-20T04:15:31.147Z,100076.36
2018-07-20T04:17:59.624Z,100079.26
2018-07-20T04:20:28.072Z,100076.42
2018-07-20T04:22:56.531Z,100078.72
2018-07-20T04:25:24.975Z,100073.52
2018-07-20T04:27:53.582Z,100080.45
2018-07-20T04:30:22.256Z,100079.67
2018-07-20T04:32:50.741Z,100078.94
2018-07-20T04:35:19.215Z,100080.22
2018-07-20T04:37:47.998Z,100085.58
2018-07-20T04:40:16.467Z,100086.89
2018-07-20T04:42:44.875Z,100086.67
2018-07-20T04:45:13.695Z,100082.39
2018-07-20T04:47:42.199Z,100083.69
2018-07-20T04:50:10.615Z,100079.45
2018-07-20T04:52:39.269Z,100080.14
2018-07-20T04:55:07.844Z,100080.19
2018-07-20T04:57:36.238Z,100078.50
2018-07-20T05:00:05.068Z,100077.80
2018-07-20T05:02:33.500Z,100082.61
2018-07-20T05:05:01.989Z,100080.71
2018-07-20T05:07:30.458Z,100079.07
2018-07-20T05:09:58.890Z,100079.48
2018-07-20T05:12:27.366Z,100083.02
2018-07-20T05:14:55.812Z,100075.23
2018-07-20T05:17:24.847Z,100070.19
2018-07-20T05:19:53.386Z,100075.22
2018-07-20T05:22:22.025Z,100072.53
2018-07-20T05:24:50.433Z,100071.23
2018-07-20T05:27:18.839Z,100072.57
2018-07-20T05:29:47.313Z,100068.02
2018-07-20T05:32:15.811Z,100063.28
2018-07-20T05:34:44.295Z,100062.17
2018-07-20T05:37:12.983Z,100059.38
2018-07-20T05:39:41.434Z,100061.37
2018-07-20T05:42:09.848Z,100063.85
2018-07-20T05:44:38.303Z,100061.42
2018-07-20T05:47:06.743Z,100065.18
2018-07-20T05:49:35.187Z,100070.16
2018-07-20T05:52:03.952Z,100059.28
2018-07-20T05:54:32.497Z,100063.99
2018-07-20T05:57:01.079Z,100055.65
2018-07-20T05:59:29.596Z,100057.50
2018-07-20T06:01:58.048Z,100054.17
2018-07-20T06:04:26.491Z,100048.65
2018-07-20T06:06:55.015Z,100050.13
2018-07-20T06:09:23.566Z,100050.68
2018-07-20T06:11:52.035Z,100052.62
2018-07-20T06:14:20.899Z,100050.34
2018-07-20T06:16:49.325Z,100045.48
2018-07-20T06:19:17.835Z,100037.11
2018-07-20T06:21:46.336Z,100035.95
2018-07-20T06:24:14.791Z,100038.44
2018-07-20T06:26:43.326Z,100039.25
2018-07-20T06:29:11.830Z,100037.27
2018-07-20T06:31:40.349Z,100037.31
2018-07-20T06:34:08.928Z,100033.31
2018-07-20T06:36:37.412Z,100037.31
2018-07-20T06:39:08.441Z,100036.67
2018-07-20T06:41:36.962Z,100037.30
2018-07-20T06:44:05.591Z,100030.80
2018-07-20T06:46:34.676Z,100031.07
2018-07-20T06:49:03.187Z,100035.42
2018-07-20T06:51:31.740Z,100033.16
2018-07-20T06:54:00.331Z,100040.73
2018-07-20T06:56:28.759Z,100039.25
2018-07-20T06:58:57.432Z,100042.53
2018-07-20T07:01:25.895Z,100039.38
2018-07-20T07:03:54.356Z,100036.31
2018-07-20T07:06:23.551Z,100041.17
2018-07-20T07:08:52.008Z,100035.88
2018-07-20T07:11:20.579Z,100042.97
2018-07-20T07:13:49.078Z,100044.09
2018-07-20T07:16:17.960Z,100042.75
2018-07-20T07:18:46.375Z,100040.23
2018-07-20T07:21:15.044Z,100034.67
2018-07-20T07:23:43.589Z,100037.88
2018-07-20T07:26:11.967Z,100041.75
2018-07-20T07:28:40.403Z,100045.18
2018-07-20T07:31:08.847Z,100041.11
2018-07-20T07:33:37.339Z,100041.61
2018-07-20T07:36:05.801Z,100044.04
2018-07-20T07:38:34.235Z,100041.87
2018-07-20T07:41:02.795Z,100040.56
2018-07-20T07:43:31.296Z,100039.49
2018-07-20T07:45:59.679Z,100039.68
2018-07-20T07:48:28.164Z,100035.44
2018-07-20T07:50:56.587Z,100035.48
2018-07-20T07:53:25.110Z,100033.74
2018-07-20T07:55:53.535Z,100033.48
2018-07-20T07:58:21.991Z,100031.60
2018-07-20T08:00:50.591Z,100021.62
2018-07-20T08:03:19.360Z,100024.55
2018-07-20T08:05:47.781Z,100017.88
2018-07-20T08:08:16.262Z,100016.03
2018-07-20T08:10:44.812Z,100013.60
2018-07-20T08:13:13.215Z,100012.52
2018-07-20T08:15:41.676Z,100004.61
2018-07-20T08:18:10.315Z,100021.76
2018-07-20T08:20:38.763Z,100012.33
2018-07-20T08:23:07.217Z,100012.48
2018-07-20T08:25:35.792Z,100004.56
2018-07-20T08:28:04.663Z,100002.59
2018-07-20T08:30:33.367Z,100009.52
2018-07-20T08:33:02.511Z,100007.86
2018-07-20T08:35:31.175Z,100009.12
2018-07-20T08:37:59.619Z,100005.41
2018-07-20T08:40:28.522Z,100008.16
2018-07-20T08:42:56.936Z,100001.48
2018-07-20T08:45:25.459Z,99996.88
2018-07-20T08:47:53.957Z,99993.63
2018-07-20T08:50:22.370Z,99997.31
2018-07-20T08:52:50.799Z,99993.75
2018-07-20T08:55:19.287Z,99989.48
2018-07-20T08:57:47.787Z,99986.75
2018-07-20T09:00:16.275Z,99987.39
2018-07-20T09:02:44.996Z,99987.72
2018-07-20T09:05:13.487Z,99983.38
2018-07-20T09:07:41.962Z,99983.20
2018-07-20T09:10:10.717Z,99977.55
2018-07-20T09:12:39.103Z,99979.80
2018-07-20T09:15:07.528Z,99976.73
2018-07-20T09:17:36.071Z,99975.34
2018-07-20T09:20:04.860Z,99983.89
2018-07-20T09:22:33.359Z,99965.73
2018-07-20T09:25:02.020Z,99966.38
2018-07-20T09:27:30.545Z,99968.33
2018-07-20T09:29:59.007Z,99959.61
2018-07-20T09:32:27.583Z,99965.09
2018-07-20T09:34:56.115Z,99963.70
2018-07-20T09:37:24.497Z,99961.65
2018-07-20T09:39:53.007Z,99964.20
2018-07-20T09:42:21.513Z,99959.32
2018-07-20T09:44:49.979Z,99951.98
2018-07-20T09:47:18.451Z,99957.81
2018-07-20T09:49:47.127Z,99954.81
2018-07-20T09:52:15.516Z,99956.48
2018-07-20T09:54:43.952Z,99951.10
2018-07-20T09:57:12.468Z,99947.25
2018-07-20T09:59:40.969Z,99942.81
2018-07-20T10:02:09.455Z,99953.27
2018-07-20T10:04:38.159Z,99947.72
2018-07-20T10:07:06.635Z,99948.01
2018-07-20T10:09:35.143Z,99951.39
2018-07-20T10:12:03.611Z,99943.51
2018-07-20T10:14:32.151Z,99942.93
2018-07-20T10:17:00.772Z,99937.69
2018-07-20T10:19:29.224Z,99940.19
2018-07-20T10:21:57.679Z,99940.67
2018-07-20T10:24:26.394Z,99941.91
2018-07-20T10:26:54.900Z,99935.98
2018-07-20T10:29:23.315Z,99928.58
2018-07-20T10:31:51.947Z,99926.45
2018-07-20T10:34:20.373Z,99926.45
2018-07-20T10:36:48.893Z,99924.83
2018-07-20T10:39:17.459Z,99918.88
2018-07-20T10:41:45.896Z,99920.97
2018-07-20T10:44:14.451Z,99921.73
2018-07-20T10:46:42.951Z,99919.84
2018-07-20T10:49:11.352Z,99917.99
2018-07-20T10:51:39.867Z,99915.53
2018-07-20T10:54:08.319Z,99909.20
2018-07-20T10:56:36.863Z,99913.21
2018-07-20T10:59:05.367Z,99904.05
2018-07-20T11:01:33.911Z,99905.08
2018-07-20T11:04:02.430Z,99899.72
2018-07-20T11:06:30.927Z,99909.04
2018-07-20T11:08:59.419Z,99908.80
2018-07-20T11:11:27.901Z,99904.15
2018-07-20T11:13:56.535Z,99901.70
2018-07-20T11:16:24.959Z,99897.48
2018-07-20T11:18:53.353Z,99886.44
2018-07-20T11:21:21.803Z,99895.47
2018-07-20T11:23:50.407Z,99885.67
2018-07-20T11:26:18.874Z,99887.55
2018-07-20T11:28:47.345Z,99872.57
2018-07-20T11:31:15.998Z,99864.78
2018-07-20T11:33:44.438Z,99864.16
2018-07-20T11:36:12.943Z,99869.71
2018-07-20T11:38:41.459Z,99868.65
2018-07-20T11:41:09.895Z,99874.98
2018-07-20T11:43:38.331Z,99866.82
2018-07-20T11:46:07.079Z,99864.53
2018-07-20T11:48:35.544Z,99864.89
2018-07-20T11:51:03.999Z,99865.03
2018-07-20T11:53:32.562Z,99855.86
2018-07-20T11:56:01.317Z,99856.50
2018-07-20T11:58:29.804Z,99847.03
2018-07-20T12:00:58.287Z,99858.38
2018-07-20T12:03:26.659Z,99850.34
2018-07-20T12:05:55.151Z,99841.03
2018-07-20T12:08:23.859Z,99836.41
2018-07-20T12:10:52.363Z,99841.70
2018-07-20T12:13:20.835Z,99842.64
2018-07-20T12:15:49.239Z,99836.02
2018-07-20T12:18:17.715Z,99834.13
2018-07-20T12:20:46.245Z,99826.32
2018-07-20T12:23:14.814Z,99826.50
2018-07-20T12:25:43.342Z,99822.59
2018-07-20T12:28:11.776Z,99824.55
2018-07-20T12:30:40.377Z,99818.02
2018-07-20T12:33:08.919Z,99819.88
2018-07-20T12:35:37.540Z,99818.53
2018-07-20T12:38:06.209Z,99812.58
2018-07-20T12:40:34.687Z,99804.48
2018-07-20T12:43:03.209Z,99805.80
2018-07-20T12:45:32.184Z,99807.70
2018-07-20T12:48:01.048Z,99806.12
2018-07-20T12:50:29.685Z,99805.86
2018-07-20T12:52:58.279Z,99813.21
2018-07-20T12:55:26.775Z,99807.72
2018-07-20T12:57:55.276Z,99805.20
2018-07-20T13:00:24.043Z,99801.34
2018-07-20T13:02:53.591Z,99801.05
2018-07-20T13:05:22.123Z,99797.73
2018-07-20T13:07:50.963Z,99801.88
2018-07-20T13:10:19.387Z,99791.41
2018-07-20T13:12:47.863Z,99789.20
2018-07-20T13:15:16.392Z,99786.43
2018-07-20T13:17:44.864Z,99782.55
2018-07-20T13:20:13.327Z,99776.64
2018-07-20T13:22:42.155Z,99779.39
2018-07-20T13:25:10.679Z,99775.21
2018-07-20T13:27:39.066Z,99777.86
2018-07-20T13:30:08.955Z,99778.66
2018-07-20T13:32:37.524Z,99774.85
2018-07-20T13:35:06.705Z,99774.84
2018-07-20T13:37:35.197Z,99768.41
2018-07-20T13:40:03.638Z,99768.14
2018-07-20T13:42:32.153Z,99759.19
2018-07-20T13:45:00.576Z,99762.53
2018-07-20T13:47:29.031Z,99762.66
2018-07-20T13:49:57.444Z,99750.85
2018-07-20T13:52:25.964Z,99742.57
2018-07-20T13:54:54.415Z,99738.87
2018-07-20T13:57:22.875Z,99746.62
2018-07-20T13:59:51.456Z,99742.92
2018-07-20T14:02:19.911Z,99738.91
2018-07-20T14:04:48.383Z,99738.02
2018-07-20T14:07:16.800Z,99746.56
2018-07-20T14:09:45.218Z,99731.20
2018-07-20T14:12:13.815Z,99734.78
2018-07-20T14:14:42.647Z,99727.91
2018-07-20T14:17:11.183Z,99730.11
2018-07-20T14:19:39.680Z,99726.26
2018-07-20T14:22:08.647Z,99727.02
2018-07-20T14:24:37.094Z,99723.56
2018-07-20T14:27:05.599Z,99721.06
2018-07-20T14:29:34.256Z,99718.09
2018-07-20T14:32:02.809Z,99720.68
2018-07-20T14:34:31.301Z,99714.00
2018-07-20T14:36:59.713Z,99715.29
2018-07-20T14:39:28.231Z,99710.02
2018-07-20T14:41:56.719Z,99706.11
2018-07-20T14:44:25.134Z,99703.17
2018-07-20T14:46:53.615Z,99700.08
2018-07-20T14:49:22.043Z,99691.67
2018-07-20T14:51:50.875Z,99694.63
2018-07-20T14:54:19.343Z,99697.52
2018-07-20T14:56:47.775Z,99683.92
2018-07-20T14:59:16.315Z,99690.17
2018-07-20T15:01:44.801Z,99689.20
2018-07-20T15:04:13.420Z,99687.42
2018-07-20T15:06:41.895Z,99683.48
2018-07-20T15:09:12.152Z,99679.98
2018-07-20T15:11:40.843Z,99678.66
2018-07-20T15:14:09.522Z,99675.30
2018-07-20T15:16:37.935Z,99672.30
2018-07-20T15:19:06.975Z,99666.07
2018-07-20T15:21:35.881Z,99660.20
2018-07-20T15:24:04.430Z,99661.75
2018-07-20T15:26:33.154Z,99658.35
2018-07-20T15:29:01.785Z,99658.63
2018-07-20T15:31:30.195Z,99651.75
2018-07-20T15:33:58.699Z,99651.43
2018-07-20T15:36:27.330Z,99646.12
2018-07-20T15:38:55.779Z,99643.18
2018-07-20T15:41:24.271Z,99645.22
2018-07-20T15:43:52.809Z,99643.66
2018-07-20T15:46:21.291Z,99638.44
2018-07-20T15:48:49.688Z,99643.67
2018-07-20T15:51:18.319Z,99634.19
2018-07-20T15:53:47.709Z,99632.92
2018-07-20T15:56:16.139Z,99634.84
2018-07-20T15:58:44.560Z,99631.70
2018-07-20T16:01:13.035Z,99630.23
2018-07-20T16:03:41.535Z,99631.57
2018-07-20T16:06:10.096Z,99628.60
2018-07-20T16:08:38.500Z,99629.30
2018-07-20T16:11:07.148Z,99628.00
2018-07-20T16:13:35.804Z,99631.94
2018-07-20T16:16:04.505Z,99623.64
2018-07-20T16:18:32.907Z,99629.46
2018-07-20T16:21:01.467Z,99622.39
2018-07-20T16:23:30.010Z,99623.45
2018-07-20T16:25:58.663Z,99621.06
2018-07-20T16:28:27.264Z,99615.91
2018-07-20T16:30:55.739Z,99616.95
2018-07-20T16:33:24.183Z,99612.07
2018-07-20T16:35:52.808Z,99604.28
2018-07-20T16:38:21.310Z,99593.13
2018-07-20T16:40:49.796Z,99590.38
2018-07-20T16:43:18.187Z,99590.22
2018-07-20T16:45:46.644Z,99587.09
2018-07-20T16:48:15.148Z,99587.78
2018-07-20T16:50:44.120Z,99587.06
2018-07-20T16:53:12.539Z,99576.32
2018-07-20T16:55:41.121Z,99574.81
2018-07-20T16:58:09.648Z,99575.73
2018-07-20T17:00:38.058Z,99576.39
2018-07-20T17:03:06.500Z,99576.66
2018-07-20T17:05:34.962Z,99580.58
2018-07-20T17:08:03.392Z,99573.08
2018-07-20T17:10:31.876Z,99574.77
2018-07-20T17:13:00.276Z,99575.34
2018-07-20T17:15:28.732Z,99573.67
2018-07-20T17:17:57.182Z,99576.39
2018-07-20T17:20:26.055Z,99568.47
2018-07-20T17:22:54.471Z,99576.32
2018-07-20T17:25:22.959Z,99575.02
2018-07-20T17:27:51.440Z,99569.84
2018-07-20T17:30:19.875Z,99579.38
2018-07-20T17:32:48.335Z,99571.10
2018-07-20T17:35:17.019Z,99575.98
2018-07-20T17:37:45.535Z,99585.44
2018-07-20T17:40:13.955Z,99588.81
2018-07-20T17:42:42.467Z,99596.87
2018-07-20T17:45:10.998Z,99582.81
2018-07-20T17:47:39.461Z,99592.70
2018-07-20T17:50:08.311Z,99593.28
2018-07-20T17:52:36.795Z,99592.23
2018-07-20T17:55:05.199Z,99586.73
2018-07-20T17:57:33.815Z,99588.69
2018-07-20T18:00:02.500Z,99589.29
2018-07-20T18:02:30.996Z,99583.59
2018-07-20T18:04:59.549Z,99593.91
2018-07-20T18:07:27.993Z,99591.29
2018-07-20T18:09:56.468Z,99589.89
2018-07-20T18:12:25.039Z,99584.69
2018-07-20T18:14:53.715Z,99584.19
2018-07-20T18:17:22.111Z,99582.75
2018-07-20T18:19:50.710Z,99575.36
2018-07-20T18:22:19.276Z,99580.19
2018-07-20T18:24:47.729Z,99589.63
2018-07-20T18:27:16.478Z,99587.09
2018-07-20T18:29:44.804Z,99589.66
2018-07-20T18:32:13.218Z,99591.28
2018-07-20T18:34:41.915Z,99583.44
2018-07-20T18:37:10.343Z,99595.53
2018-07-20T18:39:38.811Z,99592.22
2018-07-20T18:42:07.369Z,99593.13
2018-07-20T18:44:35.791Z,99590.06
2018-07-20T18:47:04.319Z,99592.14
2018-07-20T18:49:32.791Z,99590.58
2018-07-20T18:52:01.293Z,99595.03
2018-07-20T18:54:29.692Z,99584.34
2018-07-20T18:56:58.103Z,99592.91
2018-07-20T18:59:26.603Z,99588.80
2018-07-20T19:01:55.000Z,99587.47
2018-07-20T19:04:23.635Z,99588.95
2018-07-20T19:06:52.071Z,99588.33
2018-07-20T19:09:20.539Z,99591.17
2018-07-20T19:11:49.039Z,99593.95
2018-07-20T19:14:17.554Z,99598.56
2018-07-20T19:16:46.016Z,99598.88
2018-07-20T19:19:14.579Z,99597.69
2018-07-20T19:21:43.172Z,99601.27
2018-07-20T19:24:11.795Z,99602.23
2018-07-20T19:26:40.785Z,99603.30
2018-07-20T19:29:09.227Z,99606.02
2018-07-20T19:31:37.711Z,99602.80
2018-07-20T19:34:06.367Z,99599.68
2018-07-20T19:36:34.773Z,99600.52
2018-07-20T19:39:03.918Z,99602.23
2018-07-20T19:41:32.876Z,99608.95
2018-07-20T19:44:01.299Z,99603.33
2018-07-20T19:46:29.940Z,99596.20
2018-07-20T19:48:58.464Z,99598.84
2018-07-20T19:51:26.880Z,99603.08
2018-07-20T19:53:55.378Z,99600.94
2018-07-20T19:56:23.921Z,99607.42
2018-07-20T19:58:52.411Z,99603.34
2018-07-20T20:01:20.843Z,99607.80
2018-07-20T20:03:49.279Z,99612.41
2018-07-20T20:06:17.727Z,99615.47
2018-07-20T20:08:46.259Z,99614.06
2018-07-20T20:11:14.723Z,99614.11
2018-07-20T20:13:43.237Z,99608.78
2018-07-20T20:16:11.698Z,99604.02
2018-07-20T20:18:40.123Z,99604.05
2018-07-20T20:21:08.597Z,99605.20
2018-07-20T20:23:37.085Z,99605.03
2018-07-20T20:26:05.966Z,99605.36
2018-07-20T20:28:34.643Z,99609.94
2018-07-20T20:31:03.048Z,99607.23
2018-07-20T20:33:31.655Z,99603.66
2018-07-20T20:36:00.169Z,99599.52
2018-07-20T20:38:28.589Z,99600.22
2018-07-20T20:40:57.079Z,99594.77
2018-07-20T20:43:25.772Z,99595.48
2018-07-20T20:45:54.150Z,99591.03
2018-07-20T20:48:22.669Z,99590.90
2018-07-20T20:50:51.145Z,99580.81
2018-07-20T20:53:19.579Z,99588.67
2018-07-20T20:55:48.311Z,99594.80
2018-07-20T20:58:16.724Z,99604.17
2018-07-20T21:00:45.263Z,99605.03
2018-07-20T21:03:13.707Z,99601.92
2018-07-20T21:05:42.092Z,99600.88
2018-07-20T21:08:10.638Z,99603.16
2018-07-20T21:10:39.327Z,99596.80
2018-07-20T21:13:07.825Z,99598.95
2018-07-20T21:15:36.271Z,99597.30
2018-07-20T21:18:05.150Z,99594.94
2018-07-20T21:20:33.571Z,99595.16
2018-07-20T21:23:02.175Z,99594.63
2018-07-20T21:25:30.858Z,99588.61
2018-07-20T21:27:59.275Z,99589.92
2018-07-20T21:30:27.766Z,99582.04
2018-07-20T21:32:56.419Z,99575.66
2018-07-20T21:35:24.851Z,99572.47
2018-07-20T21:37:53.335Z,99574.09
2018-07-20T21:40:21.846Z,99583.09
2018-07-20T21:42:50.339Z,99580.65
2018-07-20T21:45:18.892Z,99586.02
2018-07-20T21:47:47.342Z,99586.05
2018-07-20T21:50:15.815Z,99588.44
2018-07-20T21:52:44.203Z,99592.44
2018-07-20T21:55:12.859Z,99596.06
2018-07-20T21:57:41.319Z,99599.80
2018-07-20T22:00:16.328Z,99602.73
2018-07-20T22:02:44.751Z,99599.20
2018-07-20T22:05:13.260Z,99603.88
2018-07-20T22:07:41.904Z,99605.13
2018-07-20T22:10:10.471Z,99606.55
2018-07-20T22:12:38.869Z,99604.36
2018-07-20T22:15:08.515Z,99611.98
2018-07-20T22:17:37.062Z,99604.75
2018-07-20T22:20:06.468Z,99611.03
2018-07-20T22:22:35.314Z,99611.74
2018-07-20T22:25:04.092Z,99606.30
2018-07-20T22:27:32.565Z,99606.56
2018-07-20T22:30:01.153Z,99602.52
2018-07-20T22:32:29.579Z,99603.97
2018-07-20T22:34:58.031Z,99606.94
2018-07-20T22:37:26.512Z,99609.16
2018-07-20T22:39:54.958Z,99606.58
2018-07-20T22:42:23.503Z,99611.44
2018-07-20T22:44:52.080Z,99610.58
2018-07-20T22:47:20.611Z,99604.46
2018-07-20T22:49:49.083Z,99609.44
2018-07-20T22:52:17.925Z,99608.80
2018-07-20T22:54:46.639Z,99607.80
2018-07-20T22:57:15.087Z,99607.40
2018-07-20T22:59:43.595Z,99615.77
2018-07-20T23:02:12.100Z,99608.09
2018-07-20T23:04:40.593Z,99610.32
2018-07-20T23:07:09.123Z,99602.66
2018-07-20T23:09:37.549Z,99603.16
2018-07-20T23:12:06.088Z,99600.45
2018-07-20T23:14:34.749Z,99601.91
2018-07-20T23:17:03.159Z,99604.17
2018-07-20T23:19:31.623Z,99605.73
2018-07-20T23:22:00.507Z,99603.17
2018-07-20T23:24:28.971Z,99597.87
2018-07-20T23:26:57.452Z,99595.09
2018-07-20T23:29:27.410Z,99595.80
2018-07-20T23:31:55.815Z,99586.78
2018-07-20T23:34:24.215Z,99590.84
2018-07-20T23:36:52.840Z,99589.48
2018-07-20T23:39:21.319Z,99577.36
2018-07-20T23:41:49.849Z,99576.85
2018-07-20T23:44:18.599Z,99575.48
2018-07-20T23:46:47.047Z,99576.11
2018-07-20T23:49:15.540Z,99577.70
2018-07-20T23:51:44.178Z,99570.97
2018-07-20T23:54:12.700Z,99571.98
2018-07-20T23:56:41.091Z,99570.83
2018-07-20T23:59:09.609Z,99572.98
